Time;durP1;ratioP1;P1;durP2;ratioP2;P2;SDS_P1;SDS_P2;PMS_P1;PMS_P2;Temp;Humidity;BMP_temperature;BMP_pressure;BME280_temperature;BME280_humidity;BME280_pressure;Samples;Min_cycle;Max_cycle;Signal;HPM_P1;HPM_P2
2021/06/19 00:00:18;;;;;;;9.70;5.00;;;19.60;75.30;;;;;;5157838;27;20012;-82
2021/06/19 00:02:46;;;;;;;8.07;4.40;;;19.50;75.30;;;;;;5158032;27;20018;-84
2021/06/19 00:05:14;;;;;;;7.05;4.72;;;19.50;75.30;;;;;;5175130;27;20321;-84
2021/06/19 00:07:42;;;;;;;13.07;4.70;;;19.50;75.30;;;;;;5157597;27;20022;-80
2021/06/19 00:10:12;;;;;;;11.32;4.45;;;19.50;75.20;;;;;;5157700;27;20011;-82
2021/06/19 00:12:41;;;;;;;7.10;3.50;;;19.40;75.30;;;;;;5158381;27;20007;-85
2021/06/19 00:15:10;;;;;;;7.45;3.42;;;19.40;75.30;;;;;;5159415;27;20065;-83
2021/06/19 00:17:38;;;;;;;5.32;3.28;;;19.40;75.10;;;;;;5157799;27;20364;-82
2021/06/19 00:20:15;;;;;;;4.80;2.87;;;19.40;74.90;;;;;;5157896;27;20008;-84
2021/06/19 00:22:43;;;;;;;6.07;3.22;;;19.40;74.60;;;;;;5157659;27;20007;-81
2021/06/19 00:25:12;;;;;;;8.73;3.60;;;19.30;74.60;;;;;;5157543;27;20030;-81
2021/06/19 00:27:40;;;;;;;6.25;3.37;;;19.20;74.60;;;;;;5157659;27;20046;-82
2021/06/19 00:30:09;;;;;;;11.93;4.30;;;19.20;74.80;;;;;;5157847;27;20031;-81
2021/06/19 00:32:37;;;;;;;5.28;3.30;;;19.10;75.00;;;;;;5157318;27;20449;-82
2021/06/19 00:35:05;;;;;;;6.65;3.22;;;19.10;75.20;;;;;;5176115;27;20027;-81
2021/06/19 00:37:34;;;;;;;7.40;3.60;;;19.10;75.40;;;;;;5157182;27;20011;-83
2021/06/19 00:40:03;;;;;;;5.95;3.55;;;19.10;75.40;;;;;;5157403;27;20023;-83
2021/06/19 00:42:30;;;;;;;6.60;3.55;;;19.10;75.50;;;;;;5159527;27;20012;-81
2021/06/19 00:44:57;;;;;;;5.90;3.72;;;19.10;75.60;;;;;;5157178;27;20055;-82
2021/06/19 00:47:28;;;;;;;7.50;3.50;;;19.10;75.60;;;;;;5158091;27;20015;-83
2021/06/19 00:49:55;;;;;;;7.05;4.30;;;19.10;75.60;;;;;;5175939;27;20055;-82
2021/06/19 00:52:23;;;;;;;9.55;5.00;;;19.20;75.60;;;;;;5175451;27;20059;-82
2021/06/19 00:54:50;;;;;;;9.07;4.87;;;19.10;75.50;;;;;;5156940;27;20054;-83
2021/06/19 00:57:17;;;;;;;6.05;4.20;;;19.10;75.30;;;;;;5176136;27;20030;-83
2021/06/19 00:59:44;;;;;;;6.93;4.47;;;19.00;75.40;;;;;;5175771;27;20027;-83
2021/06/19 01:02:12;;;;;;;11.15;4.82;;;18.90;75.50;;;;;;5157669;27;20007;-83
2021/06/19 01:04:39;;;;;;;7.87;5.05;;;18.90;75.70;;;;;;5157371;27;20340;-85
2021/06/19 01:07:06;;;;;;;8.38;5.25;;;18.90;75.80;;;;;;5158607;27;20018;-82
2021/06/19 01:09:33;;;;;;;9.93;5.22;;;18.80;76.00;;;;;;5157154;27;20008;-81
2021/06/19 01:12:01;;;;;;;7.62;5.03;;;18.80;76.00;;;;;;5157085;27;20006;-83
2021/06/19 01:14:28;;;;;;;11.32;5.25;;;18.80;76.10;;;;;;5157285;27;20022;-81
2021/06/19 01:16:55;;;;;;;11.18;5.35;;;18.80;76.10;;;;;;5175893;27;20373;-83
2021/06/19 01:19:23;;;;;;;12.30;4.82;;;18.80;76.00;;;;;;5157383;27;20324;-83
2021/06/19 01:21:54;;;;;;;8.50;5.78;;;18.80;75.90;;;;;;5156754;27;20022;-82
2021/06/19 01:24:23;;;;;;;8.23;5.50;;;18.80;75.90;;;;;;5158423;27;20027;-82
2021/06/19 01:26:51;;;;;;;9.30;6.00;;;18.80;75.90;;;;;;5157463;27;20007;-82
2021/06/19 01:29:19;;;;;;;10.70;5.85;;;18.80;75.80;;;;;;5159645;27;20115;-83
2021/06/19 01:31:46;;;;;;;10.07;5.50;;;18.80;76.00;;;;;;5157976;27;20008;-82
2021/06/19 01:34:14;;;;;;;9.95;5.22;;;18.80;76.10;;;;;;5156841;27;20432;-83
2021/06/19 01:36:41;;;;;;;11.12;5.95;;;18.80;76.10;;;;;;5156491;27;20011;-84
2021/06/19 01:39:09;;;;;;;10.52;5.30;;;18.80;75.90;;;;;;5156942;27;20046;-82
2021/06/19 01:41:36;;;;;;;8.50;5.78;;;18.70;75.90;;;;;;5175717;27;20490;-83
2021/06/19 01:44:06;;;;;;;8.88;5.50;;;18.70;75.90;;;;;;5157322;27;20031;-84
2021/06/19 01:46:35;;;;;;;7.75;5.10;;;18.80;76.00;;;;;;5156854;27;20027;-85
2021/06/19 01:49:03;;;;;;;10.38;5.40;;;18.70;76.00;;;;;;5159105;27;20059;-84
2021/06/19 01:51:31;;;;;;;8.68;5.60;;;18.70;75.90;;;;;;5173649;27;20025;-84
2021/06/19 01:53:58;;;;;;;10.40;5.43;;;18.70;75.80;;;;;;5156964;27;20023;-82
2021/06/19 01:56:25;;;;;;;9.18;5.43;;;18.60;75.90;;;;;;5157071;27;20042;-81
2021/06/19 01:58:52;;;;;;;9.90;5.50;;;18.60;75.90;;;;;;5175680;27;20427;-84
2021/06/19 02:01:19;;;;;;;7.45;5.30;;;18.60;75.90;;;;;;5158803;27;20007;-83
2021/06/19 02:03:48;;;;;;;8.77;5.03;;;18.60;76.00;;;;;;5156641;27;20014;-83
2021/06/19 02:06:15;;;;;;;8.38;4.95;;;18.60;76.10;;;;;;5158371;27;20022;-83
2021/06/19 02:08:54;;;;;;;7.65;4.72;;;18.60;76.20;;;;;;5157239;27;20380;-84
2021/06/19 02:11:22;;;;;;;10.73;4.78;;;18.50;76.20;;;;;;5177655;27;20027;-85
2021/06/19 02:13:49;;;;;;;7.95;4.20;;;18.60;76.20;;;;;;5174568;27;20012;-84
2021/06/19 02:16:16;;;;;;;6.45;3.55;;;18.60;76.20;;;;;;5156868;27;20015;-82
2021/06/19 02:18:43;;;;;;;7.75;2.90;;;18.60;75.80;;;;;;5159370;27;20060;-83
2021/06/19 02:21:10;;;;;;;5.05;2.85;;;18.60;75.70;;;;;;5176868;27;20015;-82
2021/06/19 02:23:37;;;;;;;6.10;2.72;;;18.50;75.50;;;;;;5158468;27;20022;-83
2021/06/19 02:26:04;;;;;;;4.95;2.83;;;18.40;75.30;;;;;;5159419;27;20023;-85
2021/06/19 02:28:31;;;;;;;5.20;2.50;;;18.40;75.40;;;;;;5158133;27;20399;-83
2021/06/19 02:30:59;;;;;;;4.10;2.03;;;18.40;75.60;;;;;;5157169;27;20007;-82
2021/06/19 02:33:26;;;;;;;3.85;2.30;;;18.40;75.60;;;;;;5175021;27;20008;-82
2021/06/19 02:35:53;;;;;;;5.62;2.47;;;18.40;75.80;;;;;;5156639;27;20035;-83
2021/06/19 02:38:21;;;;;;;6.45;2.40;;;18.40;75.90;;;;;;5174711;27;20051;-85
2021/06/19 02:40:49;;;;;;;5.85;2.45;;;18.30;76.00;;;;;;5156976;27;20021;-80
2021/06/19 02:43:20;;;;;;;5.28;2.03;;;18.30;76.00;;;;;;5156745;27;20023;-83
2021/06/19 02:45:47;;;;;;;7.15;2.75;;;18.30;76.10;;;;;;5156758;27;20011;-83
2021/06/19 02:48:15;;;;;;;7.35;2.53;;;18.30;76.00;;;;;;5159353;27;20012;-85
2021/06/19 02:50:43;;;;;;;5.30;2.50;;;18.30;76.00;;;;;;5157832;27;20015;-83
2021/06/19 02:53:12;;;;;;;5.25;2.72;;;18.30;76.10;;;;;;5176657;27;20054;-82
2021/06/19 02:55:41;;;;;;;5.45;2.42;;;18.30;76.10;;;;;;5157915;27;20510;-83
2021/06/19 02:58:10;;;;;;;6.55;2.97;;;18.20;76.20;;;;;;5159742;27;20022;-83
2021/06/19 03:00:40;;;;;;;5.00;2.60;;;18.30;76.30;;;;;;5158056;27;20008;-84
2021/06/19 03:03:08;;;;;;;5.32;3.00;;;18.30;76.30;;;;;;5178929;27;20091;-85
2021/06/19 03:05:37;;;;;;;5.90;3.40;;;18.30;76.30;;;;;;5157981;27;20022;-86
2021/06/19 03:08:05;;;;;;;6.93;3.17;;;18.30;76.20;;;;;;5176604;27;20004;-85
2021/06/19 03:10:37;;;;;;;4.15;2.80;;;18.20;76.20;;;;;;5158499;27;20007;-86
2021/06/19 03:13:05;;;;;;;6.10;2.90;;;18.30;76.30;;;;;;5158577;27;20004;-85
2021/06/19 03:15:32;;;;;;;6.37;3.25;;;18.20;76.40;;;;;;5158098;27;20353;-86
2021/06/19 03:17:59;;;;;;;6.00;2.70;;;18.30;76.50;;;;;;5157601;27;20014;-85
2021/06/19 03:20:27;;;;;;;6.10;2.65;;;18.30;76.50;;;;;;5159982;27;20026;-86
2021/06/19 03:22:57;;;;;;;6.47;2.90;;;18.40;76.40;;;;;;5159561;27;20050;-85
2021/06/19 03:25:36;;;;;;;4.93;2.50;;;18.40;76.30;;;;;;5158098;27;20011;-86
2021/06/19 03:28:05;;;;;;;6.87;2.75;;;18.40;76.30;;;;;;5158861;27;20012;-85
2021/06/19 03:30:35;;;;;;;10.48;3.28;;;18.40;76.20;;;;;;5158088;27;20018;-86
2021/06/19 03:33:03;;;;;;;8.43;3.80;;;18.40;76.10;;;;;;5157812;27;20019;-85
2021/06/19 03:35:31;;;;;;;8.35;3.90;;;18.40;76.20;;;;;;5159330;27;20012;-86
2021/06/19 03:37:59;;;;;;;6.90;3.47;;;18.40;76.20;;;;;;5178194;27;20011;-83
2021/06/19 03:40:30;;;;;;;7.70;3.85;;;18.40;76.20;;;;;;5157993;27;20011;-85
2021/06/19 03:42:57;;;;;;;10.40;4.15;;;18.40;76.20;;;;;;5157935;27;20320;-86
2021/06/19 03:45:27;;;;;;;7.35;4.62;;;18.40;76.30;;;;;;5157658;27;20378;-87
2021/06/19 03:47:55;;;;;;;7.18;3.97;;;18.40;76.40;;;;;;5159962;27;20460;-85
2021/06/19 03:50:24;;;;;;;6.70;4.32;;;18.40;76.40;;;;;;5160105;27;20026;-86
2021/06/19 03:52:54;;;;;;;5.87;4.22;;;18.30;76.40;;;;;;5158164;27;20008;-85
2021/06/19 03:55:21;;;;;;;10.45;4.07;;;18.30;76.20;;;;;;5157252;27;20026;-85
2021/06/19 03:57:49;;;;;;;6.87;3.80;;;18.30;76.30;;;;;;5158583;27;20011;-85
2021/06/19 04:00:18;;;;;;;6.32;4.35;;;18.20;76.30;;;;;;5157714;27;20022;-86
2021/06/19 04:02:46;;;;;;;8.98;4.43;;;18.20;76.30;;;;;;5157727;27;20033;-85
2021/06/19 04:05:15;;;;;;;6.95;3.90;;;18.20;76.40;;;;;;5157723;27;20022;-86
2021/06/19 04:07:44;;;;;;;8.15;4.18;;;18.20;76.60;;;;;;5158008;27;20022;-85
2021/06/19 04:10:12;;;;;;;8.20;4.35;;;18.10;76.80;;;;;;5159796;27;20335;-86
2021/06/19 04:12:40;;;;;;;6.35;3.90;;;18.10;76.90;;;;;;5158129;27;20093;-86
2021/06/19 04:15:09;;;;;;;9.65;4.10;;;18.10;77.00;;;;;;5157623;27;20022;-85
2021/06/19 04:17:36;;;;;;;12.25;4.32;;;18.10;77.00;;;;;;5158113;27;20018;-86
2021/06/19 04:20:11;;;;;;;5.62;3.58;;;18.00;77.10;;;;;;5158060;27;20010;-85
2021/06/19 04:22:40;;;;;;;7.70;3.62;;;18.00;77.10;;;;;;5157982;27;20047;-86
2021/06/19 04:25:09;;;;;;;5.00;3.28;;;18.00;77.10;;;;;;5157681;27;20015;-86
2021/06/19 04:27:45;;;;;;;5.95;3.22;;;18.00;77.20;;;;;;5160167;27;20008;-85
2021/06/19 04:30:13;;;;;;;5.57;2.97;;;18.00;77.10;;;;;;5157151;27;20026;-87
2021/06/19 04:32:42;;;;;;;5.28;2.75;;;18.10;77.10;;;;;;5159176;27;20011;-86
2021/06/19 05:30:33;;;;;;;4.62;2.83;;;17.40;79.30;;;;;;5331128;26;173261;-86
2021/06/19 05:33:00;;;;;;;4.37;2.45;;;17.90;79.00;;;;;;5331417;26;20040;-86
2021/06/19 05:35:30;;;;;;;5.93;3.00;;;18.00;78.60;;;;;;5334447;26;20031;-86
2021/06/19 05:37:57;;;;;;;4.07;2.10;;;18.00;78.40;;;;;;5333558;26;20024;-88
2021/06/19 05:40:27;;;;;;;6.45;3.50;;;18.10;78.20;;;;;;5334494;26;20023;-85
2021/06/19 05:42:54;;;;;;;6.28;3.35;;;18.10;78.10;;;;;;5333599;26;20045;-87
2021/06/19 05:45:22;;;;;;;8.80;3.60;;;18.20;78.00;;;;;;5333128;26;20019;-87
2021/06/19 05:47:49;;;;;;;6.55;3.22;;;18.10;77.90;;;;;;5333925;26;20044;-86
2021/06/19 05:50:17;;;;;;;7.78;3.47;;;18.10;77.90;;;;;;5335328;26;20331;-85
2021/06/19 05:52:45;;;;;;;5.57;3.80;;;18.10;77.90;;;;;;5334033;26;20051;-87
2021/06/19 05:55:14;;;;;;;7.50;3.78;;;18.10;77.90;;;;;;5334273;26;20458;-86
2021/06/19 05:57:41;;;;;;;6.43;3.70;;;18.10;77.90;;;;;;5353067;26;20013;-87
2021/06/19 06:00:09;;;;;;;6.93;3.30;;;18.10;77.80;;;;;;5334899;26;20020;-87
2021/06/19 06:02:36;;;;;;;5.32;3.42;;;18.10;77.80;;;;;;5334378;26;20407;-85
2021/06/19 06:05:04;;;;;;;6.12;3.47;;;18.10;77.90;;;;;;5333526;26;20445;-86
2021/06/19 06:07:31;;;;;;;8.27;3.87;;;18.10;77.90;;;;;;5334300;26;20048;-85
2021/06/19 06:09:59;;;;;;;6.53;3.83;;;18.00;77.70;;;;;;5333981;26;20491;-84
2021/06/19 06:12:26;;;;;;;6.07;3.40;;;18.10;77.70;;;;;;5335575;26;20001;-85
2021/06/19 06:14:53;;;;;;;7.78;3.92;;;18.00;77.60;;;;;;5333872;26;20046;-84
2021/06/19 06:17:21;;;;;;;5.47;2.90;;;18.00;77.60;;;;;;5333820;26;20019;-86
2021/06/19 06:19:48;;;;;;;10.77;3.85;;;18.00;77.70;;;;;;5335366;26;20013;-86
2021/06/19 06:22:15;;;;;;;9.00;3.40;;;18.00;77.80;;;;;;5336065;26;20024;-86
2021/06/19 06:24:42;;;;;;;8.30;4.10;;;18.00;77.80;;;;;;5334159;26;20009;-86
2021/06/19 06:27:09;;;;;;;5.97;3.45;;;18.00;77.70;;;;;;5333129;26;20017;-87
2021/06/19 06:29:36;;;;;;;5.82;3.42;;;18.00;77.70;;;;;;5333737;26;20040;-85
2021/06/19 06:32:04;;;;;;;4.62;2.97;;;18.00;77.80;;;;;;5328645;26;20391;-86
2021/06/19 06:34:34;;;;;;;7.68;3.42;;;18.00;77.80;;;;;;5328508;26;20061;-87
2021/06/19 06:37:01;;;;;;;5.53;3.03;;;17.90;77.90;;;;;;5328512;26;20008;-87
2021/06/19 06:39:28;;;;;;;5.65;3.28;;;18.00;77.40;;;;;;5329919;26;20008;-87
2021/06/19 06:41:57;;;;;;;6.68;3.03;;;18.00;77.60;;;;;;5328426;26;20001;-87
2021/06/19 06:44:24;;;;;;;7.10;2.97;;;18.00;77.70;;;;;;5328877;26;20012;-83
2021/06/19 06:46:52;;;;;;;4.97;2.55;;;18.00;77.80;;;;;;5348148;26;20025;-83
2021/06/19 06:49:19;;;;;;;4.40;2.55;;;18.00;77.80;;;;;;5330766;26;20024;-83
2021/06/19 06:51:47;;;;;;;5.45;2.30;;;18.00;77.80;;;;;;5328441;26;20426;-83
2021/06/19 06:54:15;;;;;;;4.03;2.00;;;18.00;77.70;;;;;;5328712;26;20036;-82
2021/06/19 06:56:42;;;;;;;5.82;2.72;;;18.00;77.60;;;;;;5348253;26;20005;-83
2021/06/19 06:59:09;;;;;;;4.82;2.67;;;18.10;77.60;;;;;;5348274;26;20045;-83
2021/06/19 07:01:36;;;;;;;4.50;2.28;;;18.00;77.50;;;;;;5347774;26;20017;-82
2021/06/19 07:04:03;;;;;;;3.37;1.90;;;18.00;77.40;;;;;;5328063;26;20009;-82
2021/06/19 07:06:30;;;;;;;3.75;1.80;;;18.00;77.50;;;;;;5350565;26;20021;-83
2021/06/19 07:08:57;;;;;;;5.68;1.52;;;18.00;77.60;;;;;;5309780;26;20068;-83
2021/06/19 07:11:24;;;;;;;4.55;1.40;;;18.10;77.80;;;;;;5348036;26;20020;-83
2021/06/19 07:13:51;;;;;;;2.97;1.60;;;18.20;77.80;;;;;;5328467;26;20032;-83
2021/06/19 07:16:19;;;;;;;4.95;1.80;;;18.20;77.60;;;;;;5348340;26;20401;-83
2021/06/19 07:18:46;;;;;;;3.87;2.03;;;18.20;77.60;;;;;;5327982;26;20018;-81
2021/06/19 07:21:15;;;;;;;4.32;1.50;;;18.20;77.50;;;;;;5328187;26;20068;-83
2021/06/19 07:23:43;;;;;;;4.10;1.83;;;18.20;77.50;;;;;;5347560;26;20025;-83
2021/06/19 07:26:10;;;;;;;4.53;1.40;;;18.30;77.50;;;;;;5328053;26;20038;-83
2021/06/19 07:28:37;;;;;;;4.37;1.80;;;18.30;77.60;;;;;;5328457;26;20049;-83
2021/06/19 07:31:04;;;;;;;6.07;1.70;;;18.30;77.60;;;;;;5327663;26;20380;-83
2021/06/19 07:33:31;;;;;;;4.32;1.70;;;18.40;77.60;;;;;;5328020;26;20044;-82
2021/06/19 07:35:58;;;;;;;4.35;1.80;;;18.40;77.60;;;;;;5348167;26;20073;-82
2021/06/19 07:38:28;;;;;;;3.67;1.30;;;18.40;77.50;;;;;;5328350;26;20395;-82
2021/06/19 07:40:55;;;;;;;5.00;2.12;;;18.40;77.50;;;;;;5347566;26;20016;-81
2021/06/19 07:43:23;;;;;;;3.08;1.50;;;18.50;77.40;;;;;;5327968;26;20028;-81
2021/06/19 07:45:51;;;;;;;3.95;1.58;;;18.50;77.20;;;;;;5328344;26;20036;-82
2021/06/19 07:48:18;;;;;;;6.15;1.73;;;18.60;77.10;;;;;;5327300;26;20573;-82
2021/06/19 07:50:45;;;;;;;3.30;1.33;;;18.60;77.10;;;;;;5328637;26;20001;-83
2021/06/19 07:53:12;;;;;;;4.85;1.60;;;18.60;77.00;;;;;;5327936;26;20040;-84
2021/06/19 07:55:39;;;;;;;3.00;1.50;;;18.60;77.00;;;;;;5327604;26;20060;-82
2021/06/19 07:58:06;;;;;;;2.90;1.42;;;18.60;76.90;;;;;;5328338;26;20027;-81
2021/06/19 08:00:34;;;;;;;2.65;1.45;;;18.60;76.70;;;;;;5347246;26;20394;-81
2021/06/19 08:03:01;;;;;;;6.32;1.92;;;18.70;76.60;;;;;;5327374;26;20433;-81
2021/06/19 08:05:29;;;;;;;4.30;1.48;;;18.70;76.50;;;;;;5329464;26;20020;-81
2021/06/19 08:07:56;;;;;;;5.07;1.70;;;18.70;76.50;;;;;;5327630;26;20394;-81
2021/06/19 08:10:25;;;;;;;3.87;1.75;;;18.70;76.50;;;;;;5327683;26;20065;-81
2021/06/19 08:12:54;;;;;;;3.62;1.67;;;18.80;76.50;;;;;;5328071;26;20422;-82
2021/06/19 08:15:22;;;;;;;4.62;1.98;;;18.80;76.50;;;;;;5328599;26;20422;-81
2021/06/19 08:17:50;;;;;;;4.50;1.77;;;18.80;76.50;;;;;;5348060;26;20015;-81
2021/06/19 08:20:18;;;;;;;3.17;1.67;;;18.80;76.60;;;;;;5328977;26;20005;-80
2021/06/19 08:22:47;;;;;;;4.15;1.52;;;18.90;76.30;;;;;;5329662;26;20294;-81
2021/06/19 08:25:15;;;;;;;2.60;1.30;;;18.90;76.20;;;;;;5328920;26;20019;-82
2021/06/19 08:27:42;;;;;;;4.85;1.87;;;18.90;76.10;;;;;;5328951;26;20027;-82
2021/06/19 08:30:10;;;;;;;4.25;2.00;;;18.90;76.10;;;;;;5349220;26;20442;-81
2021/06/19 08:32:38;;;;;;;4.05;1.70;;;19.00;76.20;;;;;;5348374;26;20001;-81
2021/06/19 08:35:07;;;;;;;5.05;1.90;;;19.00;75.90;;;;;;5328571;26;20020;-81
2021/06/19 08:37:34;;;;;;;7.15;2.25;;;19.10;75.70;;;;;;5348580;26;20004;-81
2021/06/19 08:40:03;;;;;;;4.47;1.77;;;19.10;75.70;;;;;;5328438;26;20031;-81
2021/06/19 08:42:30;;;;;;;6.07;2.12;;;19.20;75.40;;;;;;5349549;26;20051;-81
2021/06/19 08:44:58;;;;;;;4.40;2.10;;;19.20;75.30;;;;;;5329372;26;20376;-81
2021/06/19 08:47:26;;;;;;;4.90;2.17;;;19.30;75.20;;;;;;5328883;26;20020;-81
2021/06/19 08:49:54;;;;;;;4.37;2.33;;;19.30;74.40;;;;;;5328498;26;20035;-81
2021/06/19 08:52:22;;;;;;;4.43;2.10;;;19.30;74.50;;;;;;5328720;26;20023;-81
2021/06/19 08:54:49;;;;;;;4.90;2.12;;;19.30;74.60;;;;;;5329692;26;20024;-80
2021/06/19 08:57:16;;;;;;;5.78;2.50;;;19.40;74.80;;;;;;5328394;26;20450;-81
2021/06/19 08:59:49;;;;;;;4.32;2.05;;;19.40;74.90;;;;;;5329203;26;20024;-81
2021/06/19 09:02:17;;;;;;;4.85;2.08;;;19.40;74.90;;;;;;5348140;26;20364;-82
2021/06/19 09:05:12;;;;;;;4.82;2.40;;;19.50;74.50;;;;;;5328477;26;20024;-81
2021/06/19 09:07:45;;;;;;;4.60;2.35;;;19.50;74.40;;;;;;5326045;26;20035;-81
2021/06/19 09:10:20;;;;;;;4.62;2.37;;;19.60;74.30;;;;;;5328483;26;20063;-82
2021/06/19 09:13:07;;;;;;;4.07;2.40;;;19.60;74.30;;;;;;5328905;26;20004;-81
2021/06/19 09:15:34;;;;;;;3.97;2.35;;;19.60;74.20;;;;;;5347862;26;20008;-82
2021/06/19 09:18:17;;;;;;;4.82;2.65;;;19.70;73.90;;;;;;5328557;26;20033;-82
2021/06/19 09:20:54;;;;;;;5.87;2.10;;;19.70;73.80;;;;;;5349075;26;20005;-81
2021/06/19 09:23:35;;;;;;;4.93;2.40;;;19.70;73.90;;;;;;5329897;26;20056;-81
2021/06/19 09:26:06;;;;;;;6.62;2.20;;;19.70;73.80;;;;;;5329516;26;20060;-80
2021/06/19 09:29:09;;;;;;;4.55;2.50;;;19.70;73.90;;;;;;5328286;26;20387;-82
2021/06/19 09:31:41;;;;;;;5.68;2.67;;;19.80;73.60;;;;;;5328773;26;20024;-82
2021/06/19 09:34:08;;;;;;;4.25;2.10;;;19.80;73.60;;;;;;5328710;26;20356;-81
2021/06/19 09:36:44;;;;;;;5.28;2.45;;;19.80;73.70;;;;;;5328356;26;20020;-81
2021/06/19 09:39:13;;;;;;;4.37;2.40;;;19.90;73.70;;;;;;5348387;26;20046;-81
2021/06/19 09:41:45;;;;;;;3.85;2.10;;;19.90;73.70;;;;;;5348377;26;20027;-81
2021/06/19 09:44:12;;;;;;;4.12;2.60;;;19.90;73.60;;;;;;5328154;26;20066;-81
2021/06/19 09:46:39;;;;;;;5.45;2.22;;;19.90;73.50;;;;;;5328643;26;20009;-81
2021/06/19 09:49:16;;;;;;;5.30;2.70;;;20.00;73.50;;;;;;5328572;26;20464;-81
2021/06/19 09:51:46;;;;;;;4.30;2.47;;;20.00;73.30;;;;;;5328088;26;20020;-81
2021/06/19 09:54:14;;;;;;;4.50;2.22;;;20.00;73.40;;;;;;5329948;26;20045;-81
2021/06/19 09:56:44;;;;;;;4.35;2.22;;;20.00;73.30;;;;;;5331215;26;20349;-81
2021/06/19 09:59:26;;;;;;;4.87;2.70;;;20.10;73.40;;;;;;5347901;26;20374;-81
2021/06/19 10:01:54;;;;;;;4.25;2.62;;;20.20;73.40;;;;;;5329463;26;20051;-82
2021/06/19 10:04:23;;;;;;;4.65;2.30;;;20.20;73.30;;;;;;5328211;26;20020;-81
2021/06/19 10:06:51;;;;;;;4.00;2.37;;;20.30;73.30;;;;;;5331391;26;20016;-82
2021/06/19 10:09:19;;;;;;;4.22;2.50;;;20.40;73.00;;;;;;5330427;26;20027;-82
2021/06/19 10:11:49;;;;;;;4.90;2.30;;;20.40;72.80;;;;;;5329539;26;20060;-81
2021/06/19 10:14:18;;;;;;;5.10;2.60;;;20.40;72.70;;;;;;5329232;26;20024;-81
2021/06/19 10:16:49;;;;;;;4.10;2.05;;;20.40;72.60;;;;;;5329618;26;20110;-81
2021/06/19 10:19:22;;;;;;;4.95;2.22;;;20.40;72.60;;;;;;5330208;26;20050;-81
2021/06/19 10:21:51;;;;;;;5.72;2.42;;;20.40;72.50;;;;;;5331285;26;20419;-82
2021/06/19 10:24:21;;;;;;;4.50;2.20;;;20.40;72.50;;;;;;5349168;26;20036;-81
2021/06/19 10:26:49;;;;;;;4.53;2.25;;;20.40;72.50;;;;;;5329650;26;20035;-81
2021/06/19 10:29:18;;;;;;;3.97;2.03;;;20.40;72.60;;;;;;5348951;26;20043;-81
2021/06/19 10:31:50;;;;;;;5.07;1.95;;;20.40;72.70;;;;;;5329888;26;20019;-81
2021/06/19 10:34:29;;;;;;;4.72;2.08;;;20.40;72.70;;;;;;5349398;26;20065;-81
2021/06/19 10:37:00;;;;;;;5.40;2.37;;;20.40;72.60;;;;;;5329919;26;20044;-85
2021/06/19 10:39:40;;;;;;;4.22;2.10;;;20.40;72.50;;;;;;5329979;26;20072;-85
2021/06/19 10:42:30;;;;;;;4.50;2.25;;;20.40;72.50;;;;;;5329230;26;20029;-88
2021/06/19 10:44:59;;;;;;;5.78;2.65;;;20.40;72.60;;;;;;5329803;26;20402;-85
2021/06/19 10:47:50;;;;;;;4.70;2.55;;;20.40;72.70;;;;;;5330880;26;20401;-84
2021/06/19 10:50:25;;;;;;;4.70;2.40;;;20.40;72.90;;;;;;5329515;26;20013;-86
2021/06/19 10:53:04;;;;;;;6.07;2.58;;;20.40;72.90;;;;;;5351446;26;20013;-85
2021/06/19 10:55:33;;;;;;;4.78;2.47;;;20.40;72.90;;;;;;5329021;26;20020;-86
2021/06/19 10:58:04;;;;;;;5.53;2.70;;;20.30;73.00;;;;;;5329460;26;20004;-87
2021/06/19 11:00:45;;;;;;;4.25;2.10;;;20.30;73.20;;;;;;5330073;26;20004;-85
2021/06/19 11:03:13;;;;;;;5.55;2.10;;;20.30;73.30;;;;;;5329722;26;20020;-86
2021/06/19 11:05:43;;;;;;;4.60;2.25;;;20.30;73.40;;;;;;5329342;26;20009;-87
2021/06/19 11:08:18;;;;;;;4.03;2.50;;;20.30;73.50;;;;;;5329035;26;20031;-86
2021/06/19 11:10:46;;;;;;;5.65;2.30;;;20.30;73.70;;;;;;5330854;26;20053;-87
2021/06/19 11:13:35;;;;;;;4.93;2.58;;;20.30;73.80;;;;;;5329985;26;20020;-86
2021/06/19 11:16:04;;;;;;;4.57;2.50;;;20.30;74.10;;;;;;5329499;26;20068;-85
2021/06/19 11:18:50;;;;;;;4.20;2.60;;;20.30;74.20;;;;;;5329577;26;20004;-83
2021/06/19 11:21:19;;;;;;;4.70;2.60;;;20.30;74.30;;;;;;5349092;26;20036;-82
2021/06/19 11:24:01;;;;;;;5.10;2.53;;;20.30;74.30;;;;;;5329202;26;20021;-83
2021/06/19 11:26:53;;;;;;;4.65;2.62;;;20.30;74.40;;;;;;5350620;26;20049;-82
2021/06/19 11:29:36;;;;;;;4.22;2.78;;;20.30;74.50;;;;;;5328703;26;20084;-82
2021/06/19 11:32:22;;;;;;;4.37;2.70;;;20.30;74.70;;;;;;5329502;26;20110;-82
2021/06/19 11:35:00;;;;;;;4.35;2.55;;;20.40;74.70;;;;;;5330686;26;20494;-82
2021/06/19 11:38:12;;;;;;;4.28;2.30;;;20.30;74.70;;;;;;5329405;26;20024;-83
2021/06/19 11:40:41;;;;;;;4.80;2.70;;;20.40;74.80;;;;;;5343942;26;20009;-82
2021/06/19 11:43:09;;;;;;;5.82;2.70;;;20.40;74.80;;;;;;5329435;26;20009;-82
2021/06/19 11:45:39;;;;;;;5.35;2.60;;;20.40;74.90;;;;;;5329289;26;20013;-82
2021/06/19 11:48:09;;;;;;;4.30;2.30;;;20.30;74.90;;;;;;5349053;26;20064;-82
2021/06/19 11:50:39;;;;;;;3.75;2.20;;;20.40;74.80;;;;;;5329276;26;20397;-82
2021/06/19 11:53:26;;;;;;;4.07;2.28;;;20.40;74.70;;;;;;5328696;26;20375;-81
2021/06/19 11:56:09;;;;;;;3.78;2.25;;;20.40;74.80;;;;;;5351127;26;20024;-82
2021/06/19 11:58:45;;;;;;;4.00;2.50;;;20.40;74.80;;;;;;5348951;26;20015;-83
2021/06/19 12:01:13;;;;;;;4.22;2.47;;;20.40;74.90;;;;;;5329081;26;20019;-81
2021/06/19 12:03:42;;;;;;;6.55;2.80;;;20.40;74.90;;;;;;5328868;26;20342;-81
2021/06/19 12:06:09;;;;;;;5.05;2.90;;;20.40;75.00;;;;;;5328752;26;20024;-81
2021/06/19 12:08:37;;;;;;;4.43;2.60;;;20.40;75.10;;;;;;5328935;26;20047;-81
2021/06/19 12:11:04;;;;;;;6.55;2.97;;;20.40;75.10;;;;;;5349651;26;20067;-81
2021/06/19 12:13:35;;;;;;;4.00;2.35;;;20.40;75.00;;;;;;5329333;26;20013;-82
2021/06/19 12:16:04;;;;;;;5.75;2.78;;;20.40;74.90;;;;;;5330225;26;20039;-82
2021/06/19 12:18:31;;;;;;;5.57;3.08;;;20.40;74.90;;;;;;5330173;26;20015;-83
2021/06/19 12:21:06;;;;;;;5.28;2.65;;;20.40;74.90;;;;;;5328924;26;20008;-81
2021/06/19 12:23:41;;;;;;;4.20;2.33;;;20.50;74.80;;;;;;5347971;26;20005;-81
2021/06/19 12:26:11;;;;;;;4.62;2.80;;;20.50;74.80;;;;;;5329281;26;20052;-81
2021/06/19 12:28:43;;;;;;;4.78;2.95;;;20.50;74.80;;;;;;5328965;26;20043;-81
2021/06/19 12:31:10;;;;;;;5.22;3.22;;;20.60;74.60;;;;;;5347677;26;20351;-81
2021/06/19 12:33:37;;;;;;;4.95;3.03;;;20.60;74.40;;;;;;5348685;26;20020;-82
2021/06/19 12:36:09;;;;;;;5.50;2.78;;;20.60;74.20;;;;;;5329128;26;20013;-81
2021/06/19 12:38:37;;;;;;;5.37;3.20;;;20.60;74.00;;;;;;5328716;26;20023;-81
2021/06/19 12:41:05;;;;;;;6.60;3.10;;;20.70;74.00;;;;;;5328931;26;20370;-81
2021/06/19 12:43:32;;;;;;;5.28;3.35;;;20.70;73.90;;;;;;5328852;26;20019;-82
2021/06/19 12:45:59;;;;;;;5.00;3.00;;;20.70;73.60;;;;;;5330479;26;20017;-81
2021/06/19 12:48:33;;;;;;;4.65;2.80;;;20.70;73.60;;;;;;5328403;26;20396;-81
2021/06/19 12:51:02;;;;;;;5.82;3.25;;;20.70;73.40;;;;;;5330163;26;20042;-81
2021/06/19 12:53:38;;;;;;;5.18;2.97;;;20.70;73.20;;;;;;5328653;26;20038;-81
2021/06/19 12:56:10;;;;;;;4.65;3.03;;;20.70;73.30;;;;;;5328241;26;20060;-81
2021/06/19 12:58:41;;;;;;;5.40;2.83;;;20.70;73.40;;;;;;5328768;26;20035;-81
2021/06/19 13:01:17;;;;;;;4.80;2.70;;;20.70;73.70;;;;;;5330594;26;20345;-81
2021/06/19 13:03:50;;;;;;;5.05;2.70;;;20.80;74.00;;;;;;5349237;26;20430;-81
2021/06/19 13:06:45;;;;;;;7.00;2.80;;;20.80;74.10;;;;;;5328745;26;20004;-81
2021/06/19 13:09:14;;;;;;;8.48;3.08;;;20.80;74.20;;;;;;5328839;26;20352;-83
2021/06/19 13:11:45;;;;;;;4.85;2.92;;;20.90;74.20;;;;;;5328475;26;20028;-83
2021/06/19 13:14:18;;;;;;;4.32;2.62;;;20.90;74.20;;;;;;5329226;26;20422;-82
2021/06/19 13:16:45;;;;;;;4.72;2.80;;;20.90;74.40;;;;;;5348351;26;20024;-83
2021/06/19 13:19:17;;;;;;;5.15;2.70;;;20.90;74.40;;;;;;5328691;26;20423;-81
2021/06/19 13:21:58;;;;;;;4.35;3.10;;;21.00;74.40;;;;;;5328620;26;20193;-81
2021/06/19 13:24:27;;;;;;;6.53;3.67;;;21.00;74.30;;;;;;5330184;26;20335;-81
2021/06/19 13:27:18;;;;;;;5.20;3.30;;;21.10;74.20;;;;;;5328472;26;20081;-81
2021/06/19 13:29:57;;;;;;;6.03;3.72;;;21.10;74.30;;;;;;5328207;26;20036;-82
2021/06/19 13:32:24;;;;;;;6.25;3.72;;;21.10;74.10;;;;;;5328743;26;20035;-81
2021/06/19 13:34:59;;;;;;;5.87;3.80;;;21.10;73.90;;;;;;5348368;26;20035;-82
2021/06/19 13:37:34;;;;;;;5.37;3.62;;;21.10;73.80;;;;;;5328695;26;20040;-81
2021/06/19 13:40:07;;;;;;;4.35;3.20;;;21.20;73.70;;;;;;5328974;26;20015;-81
2021/06/19 13:42:52;;;;;;;5.60;3.37;;;21.20;73.50;;;;;;5330675;26;20387;-81
2021/06/19 13:45:19;;;;;;;4.95;3.05;;;21.20;73.50;;;;;;5349756;26;20016;-81
2021/06/19 13:47:46;;;;;;;6.78;3.65;;;21.20;73.50;;;;;;5329962;26;20020;-81
2021/06/19 13:50:14;;;;;;;5.30;3.12;;;21.20;73.40;;;;;;5350158;26;20024;-81
2021/06/19 13:52:42;;;;;;;5.78;3.15;;;21.20;73.40;;;;;;5329825;26;20479;-81
2021/06/19 13:55:10;;;;;;;5.57;3.53;;;21.20;73.60;;;;;;5332306;26;20064;-81